Time;durP1;ratioP1;P1;durP2;ratioP2;P2;SDS_P1;SDS_P2;PMS_P1;PMS_P2;Temp;Humidity;BMP_temperature;BMP_pressure;BME280_temperature;BME280_humidity;BME280_pressure;Samples;Min_cycle;Max_cycle;Signal;HPM_P1;HPM_P2
2023/01/19 00:00:34;;;;;;;;;;;;;;;3.60;94.43;100019.78;5098170;28;19908;-79
2023/01/19 00:02:59;;;;;;;;;;;;;;;3.59;94.78;100023.28;5080231;28;19987;-79
2023/01/19 00:05:25;;;;;;;;;;;;;;;3.60;94.92;100027.56;5098419;28;19916;-79
2023/01/19 00:07:50;;;;;;;;;;;;;;;3.59;95.53;100024.13;5098158;28;19916;-78
2023/01/19 00:10:15;;;;;;;;;;;;;;;3.58;95.89;100043.13;5098070;28;19916;-78
2023/01/19 00:12:41;;;;;;;;;;;;;;;3.57;96.47;100054.38;5079618;28;20241;-79
2023/01/19 00:15:06;;;;;;;;;;;;;;;3.57;96.66;100064.75;5098447;28;20196;-79
2023/01/19 00:17:32;;;;;;;;;;;;;;;3.48;96.51;100075.31;5097920;28;20267;-79
2023/01/19 00:19:57;;;;;;;;;;;;;;;3.41;96.25;100055.66;5096900;28;19920;-79
2023/01/19 00:22:22;;;;;;;;;;;;;;;3.38;96.54;100059.13;5096977;28;19920;-79
2023/01/19 00:24:49;;;;;;;;;;;;;;;3.34;96.95;100072.22;5097649;28;19916;-79
2023/01/19 00:27:14;;;;;;;;;;;;;;;3.30;97.39;100062.81;5096756;28;19945;-78
2023/01/19 00:29:39;;;;;;;;;;;;;;;3.25;98.29;100061.16;5097616;28;20138;-78
2023/01/19 00:32:05;;;;;;;;;;;;;;;3.25;98.66;100071.50;5096906;28;20211;-78
2023/01/19 00:34:35;;;;;;;;;;;;;;;3.26;98.89;100069.81;5097850;28;20092;-78
2023/01/19 00:37:10;;;;;;;;;;;;;;;3.25;99.51;100065.50;5098021;28;19975;-78
2023/01/19 00:39:35;;;;;;;;;;;;;;;3.23;100.00;100075.03;5096042;28;20111;-78
2023/01/19 00:44:45;;;;;;;;;;;;;;;3.21;100.00;100064.72;5097264;28;19930;-78
2023/01/19 00:47:10;;;;;;;;;;;;;;;3.20;100.00;100075.09;5097670;28;19912;-78
2023/01/19 00:49:35;;;;;;;;;;;;;;;3.20;100.00;100075.97;5095987;28;20112;-78
2023/01/19 00:52:00;;;;;;;;;;;;;;;3.20;100.00;100083.72;5098157;28;19920;-78
2023/01/19 00:54:26;;;;;;;;;;;;;;;3.18;99.88;100093.25;5096941;28;19935;-78
2023/01/19 00:56:51;;;;;;;;;;;;;;;3.17;99.78;100086.38;5095883;28;19920;-78
2023/01/19 00:59:16;;;;;;;;;;;;;;;3.16;99.82;100094.16;5097587;28;19991;-78
2023/01/19 01:01:41;;;;;;;;;;;;;;;3.16;99.97;100091.59;5095660;28;19923;-78
2023/01/19 01:04:07;;;;;;;;;;;;;;;3.17;100.00;100101.06;5097669;28;19943;-79
2023/01/19 01:06:32;;;;;;;;;;;;;;;3.18;100.00;100100.16;5097416;28;19920;-78
2023/01/19 01:08:57;;;;;;;;;;;;;;;3.19;100.00;100105.31;5096049;28;20119;-78
2023/01/19 01:11:22;;;;;;;;;;;;;;;3.16;99.70;100086.41;5097658;28;19920;-78
2023/01/19 01:13:49;;;;;;;;;;;;;;;3.16;99.89;100084.66;5096878;28;19916;-78
2023/01/19 01:16:15;;;;;;;;;;;;;;;3.16;99.75;100083.81;5096365;28;20171;-78
2023/01/19 01:18:40;;;;;;;;;;;;;;;3.14;99.36;100090.78;5095208;28;19959;-78
2023/01/19 01:21:06;;;;;;;;;;;;;;;3.13;99.34;100109.75;5097606;28;20203;-78
2023/01/19 01:23:31;;;;;;;;;;;;;;;3.14;99.65;100112.31;5100261;28;20115;-78
2023/01/19 01:25:57;;;;;;;;;;;;;;;3.13;99.54;100120.09;5099832;28;19912;-78
2023/01/19 01:28:22;;;;;;;;;;;;;;;3.14;99.71;100133.00;5101602;28;20192;-78
2023/01/19 01:30:51;;;;;;;;;;;;;;;3.14;99.50;100130.44;5100803;28;19913;-78
2023/01/19 01:33:16;;;;;;;;;;;;;;;3.15;99.67;100134.72;5101309;28;19971;-78
2023/01/19 01:35:42;;;;;;;;;;;;;;;3.09;99.11;100134.84;5099632;28;19927;-78
2023/01/19 01:38:08;;;;;;;;;;;;;;;3.02;99.06;100131.56;5100219;28;19916;-76
2023/01/19 01:40:33;;;;;;;;;;;;;;;3.00;99.33;100142.78;5099592;28;19920;-78
2023/01/19 01:42:58;;;;;;;;;;;;;;;2.98;99.57;100134.22;5101301;28;20129;-78
2023/01/19 01:45:29;;;;;;;;;;;;;;;3.00;99.74;100145.38;5101454;28;19920;-78
2023/01/19 01:48:04;;;;;;;;;;;;;;;3.00;100.00;100147.97;5099180;28;19916;-78
2023/01/19 01:50:31;;;;;;;;;;;;;;;3.00;100.00;100145.38;5100108;28;20201;-78
2023/01/19 01:52:56;;;;;;;;;;;;;;;3.01;100.00;100150.53;5099253;28;20127;-78
2023/01/19 01:55:22;;;;;;;;;;;;;;;3.04;100.00;100154.81;5099680;28;19939;-78
2023/01/19 01:57:52;;;;;;;;;;;;;;;3.07;100.00;100152.13;5082232;28;19912;-78
2023/01/19 02:00:17;;;;;;;;;;;;;;;3.10;100.00;100159.00;5099744;28;19912;-78
2023/01/19 02:02:49;;;;;;;;;;;;;;;3.10;100.00;100154.66;5094844;28;19930;-78
2023/01/19 02:05:30;;;;;;;;;;;;;;;3.10;99.98;100141.72;5078183;28;20259;-78
2023/01/19 02:13:35;;;;;;;;;;;;;;;3.15;99.91;100164.94;5079567;28;19935;-78
2023/01/19 02:16:02;;;;;;;;;;;;;;;3.16;99.84;100176.97;5079083;28;19931;-78
2023/01/19 02:18:28;;;;;;;;;;;;;;;3.15;99.43;100186.47;5079539;28;20164;-78
2023/01/19 02:20:54;;;;;;;;;;;;;;;3.06;99.24;100197.84;5078680;28;19942;-78
2023/01/19 02:23:30;;;;;;;;;;;;;;;2.99;99.02;100205.78;5079942;28;19913;-78
2023/01/19 02:25:56;;;;;;;;;;;;;;;2.93;98.70;100206.75;5080784;28;20127;-78
2023/01/19 02:28:22;;;;;;;;;;;;;;;2.84;98.38;100199.19;5079523;28;20002;-78
2023/01/19 02:30:47;;;;;;;;;;;;;;;2.84;98.63;100197.44;5062062;28;20206;-78
2023/01/19 02:33:12;;;;;;;;;;;;;;;2.83;98.77;100200.03;5079799;28;19916;-78
2023/01/19 02:35:39;;;;;;;;;;;;;;;2.86;99.13;100192.22;5078473;28;19912;-78
2023/01/19 02:38:05;;;;;;;;;;;;;;;2.86;99.63;100195.66;5080087;28;20344;-78
2023/01/19 02:40:30;;;;;;;;;;;;;;;2.84;98.89;100194.00;5078196;28;19912;-78
2023/01/19 02:42:57;;;;;;;;;;;;;;;2.87;99.28;100181.88;5061691;28;19924;-78
2023/01/19 02:45:23;;;;;;;;;;;;;;;2.92;99.74;100180.91;5079270;28;20061;-78
2023/01/19 02:47:49;;;;;;;;;;;;;;;2.95;99.76;100180.84;5095795;28;19997;-78
2023/01/19 02:50:36;;;;;;;;;;;;;;;2.98;99.79;100204.06;5079130;28;20219;-78
2023/01/19 02:53:09;;;;;;;;;;;;;;;3.00;99.64;100213.50;5079919;28;19908;-78
2023/01/19 02:55:35;;;;;;;;;;;;;;;2.98;99.02;100202.31;5079287;28;19921;-78
2023/01/19 02:58:07;;;;;;;;;;;;;;;2.98;98.66;100184.22;5078552;28;19920;-78
2023/01/19 03:00:57;;;;;;;;;;;;;;;2.99;98.79;100178.16;5079362;28;19908;-78
2023/01/19 03:03:29;;;;;;;;;;;;;;;2.98;98.67;100184.22;5079075;28;19913;-78
2023/01/19 03:06:00;;;;;;;;;;;;;;;2.99;98.96;100191.09;5079333;28;19917;-78
2023/01/19 03:08:33;;;;;;;;;;;;;;;3.01;99.24;100185.91;5079353;28;19912;-78
2023/01/19 03:11:01;;;;;;;;;;;;;;;3.02;99.13;100169.47;5078673;28;19908;-78
2023/01/19 03:13:26;;;;;;;;;;;;;;;3.04;99.39;100155.66;5079338;28;20200;-79
2023/01/19 03:15:54;;;;;;;;;;;;;;;3.10;99.81;100162.44;5079954;28;19909;-78
2023/01/19 03:18:23;;;;;;;;;;;;;;;3.15;100.00;100167.53;5079229;28;20254;-79
2023/01/19 03:20:49;;;;;;;;;;;;;;;3.20;100.00;100163.94;5080024;28;20204;-79
2023/01/19 03:23:16;;;;;;;;;;;;;;;3.23;100.00;100156.09;5077708;28;19916;-79
2023/01/19 03:25:42;;;;;;;;;;;;;;;3.27;100.00;100164.66;5079615;28;19915;-79
2023/01/19 03:28:08;;;;;;;;;;;;;;;3.26;100.00;100168.16;5078347;28;20168;-79
2023/01/19 03:30:37;;;;;;;;;;;;;;;3.21;98.54;100208.78;5078870;28;19916;-79
2023/01/19 03:33:08;;;;;;;;;;;;;;;3.20;98.54;100214.84;5079530;28;19916;-79
2023/01/19 03:35:35;;;;;;;;;;;;;;;3.20;98.94;100207.06;5078938;28;19940;-79
2023/01/19 03:38:03;;;;;;;;;;;;;;;3.19;99.31;100201.06;5079750;28;20104;-79
2023/01/19 03:40:30;;;;;;;;;;;;;;;3.22;99.50;100207.88;5079022;28;20210;-79
2023/01/19 03:42:56;;;;;;;;;;;;;;;3.23;99.77;100200.09;5078019;28;19960;-79
2023/01/19 03:45:22;;;;;;;;;;;;;;;3.26;100.00;100199.19;5077918;28;19920;-79
2023/01/19 03:47:47;;;;;;;;;;;;;;;3.28;100.00;100204.34;5079142;28;19916;-79
2023/01/19 03:50:19;;;;;;;;;;;;;;;3.29;99.83;100221.56;5078838;28;19913;-79
2023/01/19 03:52:44;;;;;;;;;;;;;;;3.31;99.50;100214.63;5079202;28;19909;-79
2023/01/19 03:55:10;;;;;;;;;;;;;;;3.31;99.43;100217.19;5077882;28;20139;-79
2023/01/19 03:57:36;;;;;;;;;;;;;;;3.31;99.07;100230.16;5076982;28;19991;-79
2023/01/19 04:00:01;;;;;;;;;;;;;;;3.32;98.99;100224.09;5079026;28;19952;-79
2023/01/19 04:02:27;;;;;;;;;;;;;;;3.35;99.54;100222.31;5078418;28;19917;-79
2023/01/19 04:04:52;;;;;;;;;;;;;;;3.37;99.78;100228.28;5078664;28;19977;-79
2023/01/19 04:07:17;;;;;;;;;;;;;;;3.39;99.87;100225.69;5078301;28;20156;-79
2023/01/19 04:09:43;;;;;;;;;;;;;;;3.40;99.96;100228.25;5078904;28;19917;-79
2023/01/19 04:12:08;;;;;;;;;;;;;;;3.41;99.68;100234.25;5077500;28;19940;-79
2023/01/19 04:14:33;;;;;;;;;;;;;;;3.39;99.22;100238.63;5077906;28;19920;-79
2023/01/19 04:16:58;;;;;;;;;;;;;;;3.37;98.74;100232.63;5077593;28;19916;-79
2023/01/19 04:19:24;;;;;;;;;;;;;;;3.38;98.55;100223.97;5077732;28;19920;-79
2023/01/19 04:21:50;;;;;;;;;;;;;;;3.37;98.75;100215.34;5078718;28;19966;-79
2023/01/19 04:24:15;;;;;;;;;;;;;;;3.37;98.18;100217.94;5078029;28;19966;-79
2023/01/19 04:26:40;;;;;;;;;;;;;;;3.38;98.19;100211.84;5078430;28;19908;-79
2023/01/19 04:29:06;;;;;;;;;;;;;;;3.39;98.40;100225.69;5078490;28;19921;-79
2023/01/19 04:31:31;;;;;;;;;;;;;;;3.39;98.21;100217.91;5076844;28;20274;-79
2023/01/19 04:33:57;;;;;;;;;;;;;;;3.39;98.20;100218.75;5076895;28;19962;-79
2023/01/19 04:36:22;;;;;;;;;;;;;;;3.40;97.97;100224.78;5078245;28;19940;-79
2023/01/19 04:38:47;;;;;;;;;;;;;;;3.40;98.10;100228.25;5077212;28;19935;-79
2023/01/19 04:41:13;;;;;;;;;;;;;;;3.40;98.20;100225.66;5078587;28;19912;-79
2023/01/19 04:43:38;;;;;;;;;;;;;;;3.42;98.29;100228.19;5076719;28;19921;-79
2023/01/19 04:46:03;;;;;;;;;;;;;;;3.43;98.16;100227.31;5078355;28;20208;-79
2023/01/19 04:48:29;;;;;;;;;;;;;;;3.44;98.48;100227.28;5077574;28;19921;-79
2023/01/19 04:50:54;;;;;;;;;;;;;;;3.45;98.70;100226.38;5077485;28;19987;-79
2023/01/19 04:53:19;;;;;;;;;;;;;;;3.46;98.82;100227.25;5076466;28;19921;-79
2023/01/19 04:55:45;;;;;;;;;;;;;;;3.49;98.81;100228.91;5077047;28;20093;-79
2023/01/19 04:58:10;;;;;;;;;;;;;;;3.50;98.80;100234.06;5077154;28;19988;-79
2023/01/19 05:00:36;;;;;;;;;;;;;;;3.52;98.91;100237.47;5076554;28;19954;-79
2023/01/19 05:03:01;;;;;;;;;;;;;;;3.55;99.09;100244.34;5076942;28;19921;-79
2023/01/19 05:05:27;;;;;;;;;;;;;;;3.57;99.34;100246.00;5077623;28;19919;-79
2023/01/19 05:07:52;;;;;;;;;;;;;;;3.57;98.78;100248.59;5076965;28;20093;-79
2023/01/19 05:10:17;;;;;;;;;;;;;;;3.59;98.85;100252.00;5077561;28;19920;-79
2023/01/19 05:12:42;;;;;;;;;;;;;;;3.60;99.03;100248.53;5078161;28;19994;-79
2023/01/19 05:15:08;;;;;;;;;;;;;;;3.62;99.05;100251.06;5078698;28;20142;-79
2023/01/19 05:17:34;;;;;;;;;;;;;;;3.63;98.85;100253.63;5077417;28;19927;-79
2023/01/19 05:19:59;;;;;;;;;;;;;;;3.65;98.90;100254.44;5077684;28;19951;-79
2023/01/19 05:22:25;;;;;;;;;;;;;;;3.68;99.19;100258.72;5077938;28;19925;-79
2023/01/19 05:24:50;;;;;;;;;;;;;;;3.71;99.50;100250.88;5077302;28;19957;-79
2023/01/19 05:27:15;;;;;;;;;;;;;;;3.72;99.53;100257.75;5076397;28;19913;-79
2023/01/19 05:29:40;;;;;;;;;;;;;;;3.74;99.73;100253.38;5078422;28;19921;-79
2023/01/19 05:32:06;;;;;;;;;;;;;;;3.76;100.00;100258.53;5078228;28;19958;-79
2023/01/19 05:34:31;;;;;;;;;;;;;;;3.79;100.00;100258.47;5077126;28;19991;-79
2023/01/19 05:36:56;;;;;;;;;;;;;;;3.79;100.00;100261.06;5078079;28;19975;-79
2023/01/19 05:39:21;;;;;;;;;;;;;;;3.78;100.00;100265.41;5077243;28;20166;-79
2023/01/19 05:41:47;;;;;;;;;;;;;;;3.78;99.37;100267.13;5077924;28;19993;-79
2023/01/19 05:44:12;;;;;;;;;;;;;;;3.78;99.24;100261.94;5077870;28;19916;-79
2023/01/19 05:46:38;;;;;;;;;;;;;;;3.76;98.83;100261.13;5077103;28;19948;-79
2023/01/19 05:49:03;;;;;;;;;;;;;;;3.77;98.81;100271.47;5077858;28;19920;-79
2023/01/19 05:51:36;;;;;;;;;;;;;;;3.77;98.68;100268.88;5077052;28;19921;-79
2023/01/19 05:54:01;;;;;;;;;;;;;;;3.76;98.08;100267.16;5078038;28;19912;-79
2023/01/19 05:56:27;;;;;;;;;;;;;;;3.77;98.09;100278.38;5076944;28;20124;-79
2023/01/19 05:58:52;;;;;;;;;;;;;;;3.78;98.19;100282.66;5076359;28;19916;-79
2023/01/19 06:01:17;;;;;;;;;;;;;;;3.78;98.30;100285.25;5077389;28;19976;-79
2023/01/19 06:03:43;;;;;;;;;;;;;;;3.78;98.35;100280.06;5076166;28;19955;-79
2023/01/19 06:06:08;;;;;;;;;;;;;;;3.78;98.13;100286.13;5077863;28;19917;-79
2023/01/19 06:08:33;;;;;;;;;;;;;;;3.76;97.13;100282.69;5078979;28;19916;-79
2023/01/19 06:10:59;;;;;;;;;;;;;;;3.77;96.83;100294.78;5081501;28;20019;-79
2023/01/19 06:13:24;;;;;;;;;;;;;;;3.75;97.11;100293.97;5099400;28;19981;-79
2023/01/19 06:15:55;;;;;;;;;;;;;;;3.73;96.86;100292.25;5082976;28;19920;-79
2023/01/19 06:18:20;;;;;;;;;;;;;;;3.67;93.87;100303.63;5100580;28;19928;-79
2023/01/19 06:20:45;;;;;;;;;;;;;;;3.64;92.79;100308.88;5101113;28;19927;-79
2023/01/19 06:23:10;;;;;;;;;;;;;;;3.59;92.22;100313.28;5099858;28;20208;-79
2023/01/19 06:25:36;;;;;;;;;;;;;;;3.58;93.01;100321.94;5099954;28;19927;-79
2023/01/19 06:28:01;;;;;;;;;;;;;;;3.56;94.02;100324.53;5101226;28;19920;-79
2023/01/19 06:30:27;;;;;;;;;;;;;;;3.56;94.80;100329.72;5099460;28;19919;-79
2023/01/19 06:32:53;;;;;;;;;;;;;;;3.56;94.98;100327.13;5096376;28;19927;-79
2023/01/19 06:35:18;;;;;;;;;;;;;;;3.59;95.45;100324.50;5099044;28;19912;-79
2023/01/19 06:37:43;;;;;;;;;;;;;;;3.61;95.92;100329.66;5096624;28;19936;-79
2023/01/19 06:40:09;;;;;;;;;;;;;;;3.64;96.29;100338.22;5080652;28;19924;-79
2023/01/19 06:42:34;;;;;;;;;;;;;;;3.65;96.64;100329.53;5079820;28;19950;-77
2023/01/19 06:44:59;;;;;;;;;;;;;;;3.69;96.67;100340.69;5080650;28;19939;-79
2023/01/19 06:47:25;;;;;;;;;;;;;;;3.71;96.92;100343.25;5078922;28;19962;-79
2023/01/19 06:49:50;;;;;;;;;;;;;;;3.72;96.91;100342.38;5078858;28;19912;-79
2023/01/19 06:52:17;;;;;;;;;;;;;;;3.75;97.21;100352.69;5077603;28;19974;-79
2023/01/19 06:54:43;;;;;;;;;;;;;;;3.77;97.53;100356.09;5088006;28;20222;-79
2023/01/19 06:57:09;;;;;;;;;;;;;;;3.78;97.53;100357.78;5091216;28;19920;-79
2023/01/19 06:59:35;;;;;;;;;;;;;;;3.80;97.73;100361.19;5094211;28;19974;-79
2023/01/19 07:02:00;;;;;;;;;;;;;;;3.81;97.92;100358.56;5095283;28;19927;-79
2023/01/19 07:04:25;;;;;;;;;;;;;;;3.81;97.79;100366.34;5093454;28;19927;-79
2023/01/19 07:06:51;;;;;;;;;;;;;;;3.81;97.69;100368.94;5097895;28;19972;-79
2023/01/19 07:09:16;;;;;;;;;;;;;;;3.83;97.75;100371.50;5099329;28;19927;-79
2023/01/19 07:11:42;;;;;;;;;;;;;;;3.84;97.99;100376.66;5099630;28;19994;-79
2023/01/19 07:14:07;;;;;;;;;;;;;;;3.83;97.95;100372.34;5099470;28;19955;-80
2023/01/19 07:16:32;;;;;;;;;;;;;;;3.85;97.75;100382.69;5098726;28;19930;-79
2023/01/19 07:18:58;;;;;;;;;;;;;;;3.84;97.55;100378.41;5098977;28;20235;-79
2023/01/19 07:21:23;;;;;;;;;;;;;;;3.84;96.78;100378.41;5099160;28;19927;-79
2023/01/19 07:23:49;;;;;;;;;;;;;;;3.83;96.81;100393.06;5096135;28;19979;-79
2023/01/19 07:26:17;;;;;;;;;;;;;;;3.80;95.64;100398.34;5096287;28;19962;-79
2023/01/19 07:28:42;;;;;;;;;;;;;;;3.80;96.20;100400.91;5099261;28;20009;-79
2023/01/19 07:31:08;;;;;;;;;;;;;;;3.80;96.16;100402.63;5097695;28;20192;-79
2023/01/19 07:33:33;;;;;;;;;;;;;;;3.80;96.56;100403.50;5099560;28;19920;-79
2023/01/19 07:35:58;;;;;;;;;;;;;;;3.81;96.69;100404.34;5081136;28;19955;-79
2023/01/19 07:38:24;;;;;;;;;;;;;;;3.82;96.97;100413.81;5098663;28;20176;-79
2023/01/19 07:40:49;;;;;;;;;;;;;;;3.82;96.90;100419.88;5094343;28;19924;-79
2023/01/19 07:43:15;;;;;;;;;;;;;;;3.83;97.06;100418.97;5091537;28;19994;-79
2023/01/19 07:45:40;;;;;;;;;;;;;;;3.84;97.11;100414.66;5095660;28;19920;-79
2023/01/19 07:48:07;;;;;;;;;;;;;;;3.83;96.84;100418.97;5090837;28;20208;-79
2023/01/19 07:50:33;;;;;;;;;;;;;;;3.82;96.22;100414.69;5096604;28;20153;-79
2023/01/19 07:53:03;;;;;;;;;;;;;;;3.79;94.25;100434.63;5099120;28;19916;-79
2023/01/19 07:55:28;;;;;;;;;;;;;;;3.78;95.28;100438.06;5098148;28;19973;-79
2023/01/19 07:57:53;;;;;;;;;;;;;;;3.78;95.56;100438.06;5098501;28;20231;-79
2023/01/19 08:00:20;;;;;;;;;;;;;;;3.77;95.25;100449.34;5097831;28;20279;-79
2023/01/19 08:02:50;;;;;;;;;;;;;;;3.74;94.65;100446.81;5098756;28;20138;-79
2023/01/19 08:05:19;;;;;;;;;;;;;;;3.74;94.17;100459.75;5098067;28;19919;-79
2023/01/19 08:07:45;;;;;;;;;;;;;;;3.71;94.22;100459.78;5098807;28;19990;-79
2023/01/19 08:10:11;;;;;;;;;;;;;;;3.71;95.12;100463.25;5099208;28;19991;-79
2023/01/19 08:12:36;;;;;;;;;;;;;;;3.69;94.59;100469.34;5098496;28;19939;-79
2023/01/19 08:15:02;;;;;;;;;;;;;;;3.67;94.29;100473.69;5098997;28;20089;-79
2023/01/19 08:17:27;;;;;;;;;;;;;;;3.65;93.94;100461.63;5094194;28;20218;-79
2023/01/19 08:19:52;;;;;;;;;;;;;;;3.64;93.90;100470.28;5062511;28;19937;-79
2023/01/19 08:22:18;;;;;;;;;;;;;;;3.65;94.68;100476.31;5076649;28;20239;-79
2023/01/19 08:24:43;;;;;;;;;;;;;;;3.67;95.20;100479.72;5078402;28;20331;-79
2023/01/19 08:27:11;;;;;;;;;;;;;;;3.70;95.70;100484.00;5078655;28;19912;-79
2023/01/19 08:29:36;;;;;;;;;;;;;;;3.72;96.01;100480.50;5075458;28;19946;-79
2023/01/19 08:32:02;;;;;;;;;;;;;;;3.74;96.22;100483.91;5080918;28;19916;-79
2023/01/19 08:34:29;;;;;;;;;;;;;;;3.75;96.44;100483.03;5082306;28;19989;-79
2023/01/19 08:36:54;;;;;;;;;;;;;;;3.76;96.64;100487.31;5085672;28;19912;-79
2023/01/19 08:39:19;;;;;;;;;;;;;;;3.76;96.43;100492.50;5081727;28;19931;-79
2023/01/19 08:41:44;;;;;;;;;;;;;;;3.76;96.19;100489.91;5096358;28;20182;-79
2023/01/19 08:44:10;;;;;;;;;;;;;;;3.76;95.40;100499.44;5089586;28;19920;-79
2023/01/19 08:46:35;;;;;;;;;;;;;;;3.75;95.64;100496.00;5088222;28;20133;-79
2023/01/19 08:49:00;;;;;;;;;;;;;;;3.76;95.53;100492.50;5084652;28;19991;-79
2023/01/19 08:51:26;;;;;;;;;;;;;;;3.76;95.61;100495.09;5091711;28;20138;-79
2023/01/19 08:53:51;;;;;;;;;;;;;;;3.73;93.88;100504.66;5079001;28;19944;-79
2023/01/19 08:56:16;;;;;;;;;;;;;;;3.73;94.25;100502.06;5076694;28;19956;-79
2023/01/19 08:58:42;;;;;;;;;;;;;;;3.70;93.17;100509.91;5075845;28;19923;-79
2023/01/19 09:01:08;;;;;;;;;;;;;;;3.70;93.99;100502.13;5076131;28;19954;-79
2023/01/19 09:03:34;;;;;;;;;;;;;;;3.71;94.42;100501.25;5075437;28;20147;-79
2023/01/19 09:05:59;;;;;;;;;;;;;;;3.71;94.93;100501.25;5075583;28;19943;-79
2023/01/19 09:08:25;;;;;;;;;;;;;;;3.73;95.49;100510.72;5075521;28;19947;-79
2023/01/19 09:10:50;;;;;;;;;;;;;;;3.73;95.47;100508.13;5084027;28;19912;-79
2023/01/19 09:13:17;;;;;;;;;;;;;;;3.75;95.45;100511.53;5089714;28;19920;-79
2023/01/19 09:15:42;;;;;;;;;;;;;;;3.73;95.27;100515.88;5097104;28;19975;-79
2023/01/19 09:18:12;;;;;;;;;;;;;;;3.74;95.49;100520.16;5095940;28;20212;-79
2023/01/19 09:20:37;;;;;;;;;;;;;;;3.76;95.49;100522.75;5080011;28;20378;-79
2023/01/19 09:23:03;;;;;;;;;;;;;;;3.74;95.05;100525.34;5080212;28;19908;-79
2023/01/19 09:25:28;;;;;;;;;;;;;;;3.73;93.64;100531.44;5090117;28;20093;-79
2023/01/19 09:27:55;;;;;;;;;;;;;;;3.72;93.45;100534.88;5076519;28;19994;-79
2023/01/19 09:30:20;;;;;;;;;;;;;;;3.72;93.62;100526.28;5075901;28;19948;-79
2023/01/19 09:32:45;;;;;;;;;;;;;;;3.72;93.61;100534.88;5077137;28;19926;-79
2023/01/19 09:35:11;;;;;;;;;;;;;;;3.71;92.94;100537.50;5084053;28;20285;-79
2023/01/19 09:37:36;;;;;;;;;;;;;;;3.72;93.86;100539.22;5092816;28;20099;-79
2023/01/19 09:40:02;;;;;;;;;;;;;;;3.70;92.04;100536.66;5092593;28;20224;-79
2023/01/19 09:42:41;;;;;;;;;;;;;;;3.68;90.07;100542.75;5076865;28;19921;-79
2023/01/19 09:45:12;;;;;;;;;;;;;;;3.65;90.20;100541.06;5089625;28;20248;-79
2023/01/19 09:47:40;;;;;;;;;;;;;;;3.64;88.21;100547.13;5080256;28;19923;-79
2023/01/19 09:50:14;;;;;;;;;;;;;;;3.63;87.74;100550.59;5089198;28;19912;-79
2023/01/19 09:52:42;;;;;;;;;;;;;;;3.62;88.28;100548.88;5080632;28;19987;-79
2023/01/19 09:55:18;;;;;;;;;;;;;;;3.60;87.34;100561.84;5101008;28;19916;-79
2023/01/19 09:57:44;;;;;;;;;;;;;;;3.57;82.86;100558.47;5098943;28;19916;-79
2023/01/19 10:00:14;;;;;;;;;;;;;;;3.58;84.81;100566.19;5080584;28;19947;-79
2023/01/19 10:02:43;;;;;;;;;;;;;;;3.58;85.11;100565.34;5080254;28;19920;-79
2023/01/19 10:05:20;;;;;;;;;;;;;;;3.55;82.89;100563.66;5092448;28;19927;-79
2023/01/19 10:07:57;;;;;;;;;;;;;;;3.56;83.69;100569.69;5081108;28;19952;-79
2023/01/19 10:10:30;;;;;;;;;;;;;;;3.58;85.05;100570.50;5100215;28;19927;-79
2023/01/19 10:13:03;;;;;;;;;;;;;;;3.55;85.26;100568.84;5098392;28;20162;-79
2023/01/19 10:15:37;;;;;;;;;;;;;;;3.55;88.14;100568.84;5079784;28;19923;-79
2023/01/19 10:18:10;;;;;;;;;;;;;;;3.54;85.80;100576.63;5083108;28;19912;-79
2023/01/19 10:20:45;;;;;;;;;;;;;;;3.53;83.30;100580.09;5083351;28;19974;-79
2023/01/19 10:23:24;;;;;;;;;;;;;;;3.53;82.42;100572.31;5092882;28;20159;-79
2023/01/19 10:25:49;;;;;;;;;;;;;;;3.52;81.01;100579.25;5100205;28;19920;-79
2023/01/19 10:28:15;;;;;;;;;;;;;;;3.53;81.63;100574.91;5098147;28;20100;-79
2023/01/19 10:30:41;;;;;;;;;;;;;;;3.53;83.12;100585.25;5100029;28;19920;-79
2023/01/19 10:33:07;;;;;;;;;;;;;;;3.53;84.47;100590.44;5070181;28;19912;-79
2023/01/19 10:35:32;;;;;;;;;;;;;;;3.51;82.14;100587.91;5095030;28;19974;-79
2023/01/19 10:38:00;;;;;;;;;;;;;;;3.51;81.74;100593.09;5092603;28;19917;-79
2023/01/19 10:40:46;;;;;;;;;;;;;;;3.50;80.99;100588.78;5084910;28;20115;-79
2023/01/19 10:43:31;;;;;;;;;;;;;;;3.50;83.96;100580.16;5079757;28;19950;-79
2023/01/19 10:45:56;;;;;;;;;;;;;;;3.46;80.77;100598.31;5098371;28;19914;-79
2023/01/19 10:48:22;;;;;;;;;;;;;;;3.49;83.06;100583.59;5099311;28;20168;-79
2023/01/19 10:51:00;;;;;;;;;;;;;;;3.48;83.91;100581.91;5097752;28;19908;-79
2023/01/19 10:53:25;;;;;;;;;;;;;;;3.46;83.27;100594.88;5082828;28;19944;-79
2023/01/19 10:56:09;;;;;;;;;;;;;;;3.48;85.21;100587.09;5096500;28;19912;-79
2023/01/19 10:58:34;;;;;;;;;;;;;;;3.46;80.84;100593.13;5099307;28;19931;-79
2023/01/19 11:01:12;;;;;;;;;;;;;;;3.48;82.22;100584.50;5080444;28;19951;-79
2023/01/19 11:03:38;;;;;;;;;;;;;;;3.47;83.00;100591.41;5087162;28;20104;-79
2023/01/19 11:06:12;;;;;;;;;;;;;;;3.45;81.50;100578.47;5097617;28;19948;-79
2023/01/19 11:08:38;;;;;;;;;;;;;;;3.46;82.13;100581.94;5099338;28;19908;-79
2023/01/19 11:11:04;;;;;;;;;;;;;;;3.45;82.08;100599.19;5098028;28;20023;-79
2023/01/19 11:13:29;;;;;;;;;;;;;;;3.45;80.57;100591.41;5084004;28;19920;-79
2023/01/19 11:15:57;;;;;;;;;;;;;;;3.45;82.57;100594.00;5090382;28;19916;-80
2023/01/19 11:18:35;;;;;;;;;;;;;;;3.46;79.80;100589.72;5091533;28;19928;-79
2023/01/19 11:21:02;;;;;;;;;;;;;;;3.47;79.53;100596.56;5095667;28;20222;-79
2023/01/19 11:23:40;;;;;;;;;;;;;;;3.48;80.62;100593.13;5086039;28;20250;-79
2023/01/19 11:26:07;;;;;;;;;;;;;;;3.49;81.29;100579.28;5097614;28;19916;-79
2023/01/19 11:28:32;;;;;;;;;;;;;;;3.50;78.11;100585.34;5088946;28;19928;-79
2023/01/19 11:30:58;;;;;;;;;;;;;;;3.52;81.62;100584.41;5079680;28;19923;-79
2023/01/19 11:33:25;;;;;;;;;;;;;;;3.51;81.13;100581.84;5077020;28;19916;-79
2023/01/19 11:36:00;;;;;;;;;;;;;;;3.50;79.39;100593.94;5078696;28;19909;-79
2023/01/19 11:38:26;;;;;;;;;;;;;;;3.51;79.96;100585.31;5080621;28;19995;-79
2023/01/19 11:40:55;;;;;;;;;;;;;;;3.50;78.32;100580.16;5098857;28;19927;-79
2023/01/19 11:43:22;;;;;;;;;;;;;;;3.51;80.05;100582.72;5084011;28;19958;-79
2023/01/19 11:45:47;;;;;;;;;;;;;;;3.49;78.37;100587.03;5096230;28;19920;-79
2023/01/19 11:48:33;;;;;;;;;;;;;;;3.49;78.78;100574.09;5098576;28;20158;-79
2023/01/19 11:51:00;;;;;;;;;;;;;;;3.49;78.85;100597.41;5097479;28;19916;-79
2023/01/19 11:53:28;;;;;;;;;;;;;;;3.49;78.37;100579.28;5089848;28;20272;-79
2023/01/19 11:56:08;;;;;;;;;;;;;;;3.51;78.38;100579.25;5096699;28;19908;-80
2023/01/19 11:58:37;;;;;;;;;;;;;;;3.52;78.04;100571.47;5097491;28;19920;-79
2023/01/19 12:01:07;;;;;;;;;;;;;;;3.53;78.91;100582.69;5098178;28;19994;-79
2023/01/19 12:03:39;;;;;;;;;;;;;;;3.55;81.96;100573.19;5097409;28;19933;-79
2023/01/19 12:06:12;;;;;;;;;;;;;;;3.55;79.99;100576.59;5077517;28;20162;-79
2023/01/19 12:08:41;;;;;;;;;;;;;;;3.53;75.70;100580.97;5085544;28;19965;-79
2023/01/19 12:11:08;;;;;;;;;;;;;;;3.54;77.23;100584.41;5089451;28;19927;-79
2023/01/19 12:13:34;;;;;;;;;;;;;;;3.54;77.44;100590.41;5085140;28;19908;-79
2023/01/19 12:15:59;;;;;;;;;;;;;;;3.53;76.44;100586.13;5098031;28;19924;-79
2023/01/19 12:18:28;;;;;;;;;;;;;;;3.52;77.02;100579.25;5096024;28;20177;-79
2023/01/19 12:20:54;;;;;;;;;;;;;;;3.52;78.72;100589.59;5096276;28;20017;-79
2023/01/19 12:23:23;;;;;;;;;;;;;;;3.51;78.32;100582.72;5097544;28;19975;-79
2023/01/19 12:26:00;;;;;;;;;;;;;;;3.52;76.35;100570.63;5088218;28;19920;-79
2023/01/19 12:28:28;;;;;;;;;;;;;;;3.54;76.02;100580.06;5076952;28;19916;-79
2023/01/19 12:30:54;;;;;;;;;;;;;;;3.56;76.55;100577.47;5075086;28;19916;-79
2023/01/19 12:33:19;;;;;;;;;;;;;;;3.59;80.84;100578.25;5082521;28;20246;-80
2023/01/19 12:36:05;;;;;;;;;;;;;;;3.59;81.29;100582.59;5087850;28;19912;-79
2023/01/19 12:38:41;;;;;;;;;;;;;;;3.60;82.85;100582.56;5076874;28;19940;-79
2023/01/19 12:41:16;;;;;;;;;;;;;;;3.59;81.93;100580.00;5089926;28;20230;-79
2023/01/19 12:43:41;;;;;;;;;;;;;;;3.56;80.10;100580.88;5087797;28;20300;-79
2023/01/19 12:46:18;;;;;;;;;;;;;;;3.56;80.87;100580.88;5097691;28;19990;-79
2023/01/19 12:48:44;;;;;;;;;;;;;;;3.59;84.26;100582.59;5097346;28;20158;-80
2023/01/19 12:51:20;;;;;;;;;;;;;;;3.59;83.43;100582.59;5097718;28;19916;-79
2023/01/19 12:53:50;;;;;;;;;;;;;;;3.58;82.73;100583.47;5095153;28;19908;-79